sensor_id;sensor_type;location;lat;lon;timestamp;temperature;humidity
13074;DHT22;6603;47.066;15.396;2022-09-09T00:00:48;14.40;99.90
13074;DHT22;6603;47.066;15.396;2022-09-09T00:03:24;14.20;99.90
13074;DHT22;6603;47.066;15.396;2022-09-09T00:06:03;13.80;99.90
13074;DHT22;6603;47.066;15.396;2022-09-09T00:11:28;14.00;99.90
13074;DHT22;6603;47.066;15.396;2022-09-09T00:14:02;14.00;99.90
13074;DHT22;6603;47.066;15.396;2022-09-09T00:16:32;14.20;99.90
13074;DHT22;6603;47.066;15.396;2022-09-09T00:21:47;14.20;99.90
13074;DHT22;6603;47.066;15.396;2022-09-09T00:27:04;13.90;99.90
13074;DHT22;6603;47.066;15.396;2022-09-09T00:29:51;13.50;99.90
13074;DHT22;6603;47.066;15.396;2022-09-09T00:32:20;13.90;99.90
13074;DHT22;6603;47.066;15.396;2022-09-09T00:35:10;13.90;99.90
13074;DHT22;6603;47.066;15.396;2022-09-09T00:37:42;13.60;99.90
13074;DHT22;6603;47.066;15.396;2022-09-09T00:40:23;13.50;99.90
13074;DHT22;6603;47.066;15.396;2022-09-09T00:47:56;13.50;99.90
13074;DHT22;6603;47.066;15.396;2022-09-09T00:56:29;13.80;99.90
13074;DHT22;6603;47.066;15.396;2022-09-09T01:01:47;13.70;99.90
13074;DHT22;6603;47.066;15.396;2022-09-09T01:04:20;13.60;99.90
13074;DHT22;6603;47.066;15.396;2022-09-09T01:06:53;13.70;99.90
13074;DHT22;6603;47.066;15.396;2022-09-09T01:27:51;13.20;99.90
13074;DHT22;6603;47.066;15.396;2022-09-09T01:30:18;13.30;99.90
13074;DHT22;6603;47.066;15.396;2022-09-09T01:32:45;13.40;99.90
13074;DHT22;6603;47.066;15.396;2022-09-09T01:36:34;13.50;99.90
13074;DHT22;6603;47.066;15.396;2022-09-09T01:38:28;13.30;99.90
13074;DHT22;6603;47.066;15.396;2022-09-09T01:40:53;13.50;99.90
13074;DHT22;6603;47.066;15.396;2022-09-09T01:43:23;13.10;99.90
13074;DHT22;6603;47.066;15.396;2022-09-09T01:45:53;13.30;99.90
13074;DHT22;6603;47.066;15.396;2022-09-09T01:48:22;13.40;99.90
13074;DHT22;6603;47.066;15.396;2022-09-09T01:50:49;13.40;99.90
13074;DHT22;6603;47.066;15.396;2022-09-09T01:53:17;13.10;99.90
13074;DHT22;6603;47.066;15.396;2022-09-09T02:04:45;13.10;99.90
13074;DHT22;6603;47.066;15.396;2022-09-09T02:07:35;13.40;99.90
13074;DHT22;6603;47.066;15.396;2022-09-09T02:10:15;13.60;99.90
13074;DHT22;6603;47.066;15.396;2022-09-09T02:12:45;13.40;99.90
13074;DHT22;6603;47.066;15.396;2022-09-09T02:15:24;13.00;99.90
13074;DHT22;6603;47.066;15.396;2022-09-09T02:17:52;13.20;99.90
13074;DHT22;6603;47.066;15.396;2022-09-09T02:20:20;13.30;99.90
13074;DHT22;6603;47.066;15.396;2022-09-09T02:22:50;13.20;99.90
13074;DHT22;6603;47.066;15.396;2022-09-09T02:25:20;13.20;99.90
13074;DHT22;6603;47.066;15.396;2022-09-09T02:27:48;13.20;99.90
13074;DHT22;6603;47.066;15.396;2022-09-09T02:30:15;13.40;99.90
13074;DHT22;6603;47.066;15.396;2022-09-09T02:32:42;13.50;99.90
13074;DHT22;6603;47.066;15.396;2022-09-09T02:35:12;13.30;99.90
13074;DHT22;6603;47.066;15.396;2022-09-09T02:37:42;13.50;99.90
13074;DHT22;6603;47.066;15.396;2022-09-09T02:40:11;13.50;99.90
13074;DHT22;6603;47.066;15.396;2022-09-09T02:42:48;13.50;99.90
13074;DHT22;6603;47.066;15.396;2022-09-09T02:45:18;13.50;99.90
13074;DHT22;6603;47.066;15.396;2022-09-09T02:50:49;13.50;99.90
13074;DHT22;6603;47.066;15.396;2022-09-09T02:53:23;13.60;99.90
13074;DHT22;6603;47.066;15.396;2022-09-09T02:55:58;13.60;99.90
13074;DHT22;6603;47.066;15.396;2022-09-09T02:58:26;13.60;99.90
13074;DHT22;6603;47.066;15.396;2022-09-09T03:00:52;13.70;99.90
13074;DHT22;6603;47.066;15.396;2022-09-09T03:03:19;13.70;99.90
13074;DHT22;6603;47.066;15.396;2022-09-09T03:05:46;14.00;99.90
13074;DHT22;6603;47.066;15.396;2022-09-09T03:08:12;14.10;99.90
13074;DHT22;6603;47.066;15.396;2022-09-09T03:10:39;13.90;99.90
13074;DHT22;6603;47.066;15.396;2022-09-09T03:13:05;13.90;99.90
13074;DHT22;6603;47.066;15.396;2022-09-09T03:15:32;14.10;99.90
13074;DHT22;6603;47.066;15.396;2022-09-09T03:17:59;14.00;99.90
13074;DHT22;6603;47.066;15.396;2022-09-09T03:20:26;14.10;99.90
13074;DHT22;6603;47.066;15.396;2022-09-09T03:22:53;14.30;99.90
13074;DHT22;6603;47.066;15.396;2022-09-09T03:25:20;14.40;99.90
13074;DHT22;6603;47.066;15.396;2022-09-09T03:27:46;14.50;99.90
13074;DHT22;6603;47.066;15.396;2022-09-09T03:30:12;14.30;99.90
13074;DHT22;6603;47.066;15.396;2022-09-09T03:32:39;14.20;99.90
13074;DHT22;6603;47.066;15.396;2022-09-09T03:35:06;14.10;99.90
13074;DHT22;6603;47.066;15.396;2022-09-09T03:37:31;14.10;99.90
13074;DHT22;6603;47.066;15.396;2022-09-09T03:39:57;14.20;99.90
13074;DHT22;6603;47.066;15.396;2022-09-09T03:42:24;14.00;99.90
13074;DHT22;6603;47.066;15.396;2022-09-09T03:44:50;14.00;99.90
13074;DHT22;6603;47.066;15.396;2022-09-09T03:47:20;13.90;99.90
13074;DHT22;6603;47.066;15.396;2022-09-09T03:49:47;14.00;99.90
13074;DHT22;6603;47.066;15.396;2022-09-09T03:52:14;13.70;99.90
13074;DHT22;6603;47.066;15.396;2022-09-09T03:54:41;13.60;99.90
13074;DHT22;6603;47.066;15.396;2022-09-09T03:57:08;13.60;99.90
13074;DHT22;6603;47.066;15.396;2022-09-09T03:59:35;13.60;99.90
13074;DHT22;6603;47.066;15.396;2022-09-09T04:02:01;13.50;99.90
13074;DHT22;6603;47.066;15.396;2022-09-09T04:04:27;13.60;99.90
13074;DHT22;6603;47.066;15.396;2022-09-09T04:06:53;13.80;99.90
13074;DHT22;6603;47.066;15.396;2022-09-09T04:09:19;13.70;99.90
13074;DHT22;6603;47.066;15.396;2022-09-09T04:11:45;13.50;99.90
13074;DHT22;6603;47.066;15.396;2022-09-09T04:14:11;13.50;99.90
13074;DHT22;6603;47.066;15.396;2022-09-09T04:16:38;13.40;99.90
13074;DHT22;6603;47.066;15.396;2022-09-09T04:19:05;13.60;99.90
13074;DHT22;6603;47.066;15.396;2022-09-09T04:21:33;13.70;99.90
13074;DHT22;6603;47.066;15.396;2022-09-09T04:23:59;13.70;99.90
13074;DHT22;6603;47.066;15.396;2022-09-09T04:26:25;13.60;99.90
13074;DHT22;6603;47.066;15.396;2022-09-09T04:28:51;13.60;99.90
13074;DHT22;6603;47.066;15.396;2022-09-09T04:31:19;13.70;99.90
13074;DHT22;6603;47.066;15.396;2022-09-09T04:33:45;13.70;99.90
13074;DHT22;6603;47.066;15.396;2022-09-09T04:36:13;13.70;99.90
13074;DHT22;6603;47.066;15.396;2022-09-09T04:38:39;13.80;99.90
13074;DHT22;6603;47.066;15.396;2022-09-09T04:41:05;13.70;99.90
13074;DHT22;6603;47.066;15.396;2022-09-09T04:43:33;13.90;99.90
13074;DHT22;6603;47.066;15.396;2022-09-09T04:45:59;14.10;99.90
13074;DHT22;6603;47.066;15.396;2022-09-09T04:48:26;14.20;99.90
13074;DHT22;6603;47.066;15.396;2022-09-09T04:51:04;14.00;99.90
13074;DHT22;6603;47.066;15.396;2022-09-09T04:53:30;14.00;99.90
13074;DHT22;6603;47.066;15.396;2022-09-09T04:56:08;14.00;99.90
13074;DHT22;6603;47.066;15.396;2022-09-09T04:58:36;14.00;99.90
13074;DHT22;6603;47.066;15.396;2022-09-09T05:01:04;14.00;99.90
13074;DHT22;6603;47.066;15.396;2022-09-09T05:03:30;14.00;99.90
13074;DHT22;6603;47.066;15.396;2022-09-09T05:06:09;14.00;99.90
13074;DHT22;6603;47.066;15.396;2022-09-09T05:08:39;14.10;99.90
13074;DHT22;6603;47.066;15.396;2022-09-09T05:11:23;14.20;99.90
13074;DHT22;6603;47.066;15.396;2022-09-09T05:13:50;14.20;99.90
13074;DHT22;6603;47.066;15.396;2022-09-09T05:16:16;14.00;99.90
13074;DHT22;6603;47.066;15.396;2022-09-09T05:18:43;13.90;99.90
13074;DHT22;6603;47.066;15.396;2022-09-09T05:21:10;14.00;99.90
13074;DHT22;6603;47.066;15.396;2022-09-09T05:23:37;14.10;99.90
13074;DHT22;6603;47.066;15.396;2022-09-09T05:26:04;14.30;99.90
13074;DHT22;6603;47.066;15.396;2022-09-09T05:28:30;14.40;99.90
13074;DHT22;6603;47.066;15.396;2022-09-09T05:31:01;14.50;99.90
13074;DHT22;6603;47.066;15.396;2022-09-09T05:33:30;14.80;99.90
13074;DHT22;6603;47.066;15.396;2022-09-09T05:36:02;15.00;99.90
13074;DHT22;6603;47.066;15.396;2022-09-09T05:38:30;15.20;99.90
13074;DHT22;6603;47.066;15.396;2022-09-09T05:40:58;15.40;99.90
13074;DHT22;6603;47.066;15.396;2022-09-09T05:43:25;15.40;99.90
13074;DHT22;6603;47.066;15.396;2022-09-09T05:46:12;15.60;99.90
13074;DHT22;6603;47.066;15.396;2022-09-09T05:48:39;15.70;99.90
13074;DHT22;6603;47.066;15.396;2022-09-09T05:51:08;15.60;99.90
13074;DHT22;6603;47.066;15.396;2022-09-09T05:53:36;15.80;99.90
13074;DHT22;6603;47.066;15.396;2022-09-09T05:56:10;15.90;99.90
13074;DHT22;6603;47.066;15.396;2022-09-09T05:58:37;16.10;99.90
13074;DHT22;6603;47.066;15.396;2022-09-09T06:01:09;16.30;99.90
13074;DHT22;6603;47.066;15.396;2022-09-09T06:03:39;16.50;57.80
13074;DHT22;6603;47.066;15.396;2022-09-09T06:06:08;16.60;86.40
13074;DHT22;6603;47.066;15.396;2022-09-09T06:08:35;16.70;96.30
13074;DHT22;6603;47.066;15.396;2022-09-09T06:11:07;16.80;99.90
13074;DHT22;6603;47.066;15.396;2022-09-09T06:13:33;16.80;99.90
13074;DHT22;6603;47.066;15.396;2022-09-09T06:16:01;16.80;32.00
13074;DHT22;6603;47.066;15.396;2022-09-09T06:18:26;16.80;99.90
13074;DHT22;6603;47.066;15.396;2022-09-09T06:21:00;16.80;89.50
13074;DHT22;6603;47.066;15.396;2022-09-09T06:23:27;16.70;85.40
13074;DHT22;6603;47.066;15.396;2022-09-09T06:28:34;16.60;93.50
13074;DHT22;6603;47.066;15.396;2022-09-09T06:31:02;16.60;32.00
13074;DHT22;6603;47.066;15.396;2022-09-09T06:33:37;16.80;98.80
13074;DHT22;6603;47.066;15.396;2022-09-09T06:36:15;16.90;31.20
13074;DHT22;6603;47.066;15.396;2022-09-09T06:38:42;17.00;1.00
13074;DHT22;6603;47.066;15.396;2022-09-09T06:41:09;17.20;1.00
13074;DHT22;6603;47.066;15.396;2022-09-09T06:43:36;17.10;1.00
13074;DHT22;6603;47.066;15.396;2022-09-09T06:46:14;17.10;1.00
13074;DHT22;6603;47.066;15.396;2022-09-09T06:48:40;17.20;1.00
13074;DHT22;6603;47.066;15.396;2022-09-09T06:51:21;17.50;1.20
13074;DHT22;6603;47.066;15.396;2022-09-09T06:53:50;17.70;1.00
13074;DHT22;6603;47.066;15.396;2022-09-09T06:56:23;17.60;1.00
13074;DHT22;6603;47.066;15.396;2022-09-09T06:58:51;17.60;1.00
13074;DHT22;6603;47.066;15.396;2022-09-09T07:01:27;17.50;1.00
13074;DHT22;6603;47.066;15.396;2022-09-09T07:03:55;17.50;6.90
13074;DHT22;6603;47.066;15.396;2022-09-09T07:06:23;17.50;1.00
13074;DHT22;6603;47.066;15.396;2022-09-09T07:08:51;17.50;1.00
13074;DHT22;6603;47.066;15.396;2022-09-09T07:11:18;17.40;1.00
13074;DHT22;6603;47.066;15.396;2022-09-09T07:13:44;17.30;1.00
13074;DHT22;6603;47.066;15.396;2022-09-09T07:16:12;17.20;59.20
13074;DHT22;6603;47.066;15.396;2022-09-09T07:18:39;17.20;15.70
13074;DHT22;6603;47.066;15.396;2022-09-09T07:21:06;17.10;13.40
13074;DHT22;6603;47.066;15.396;2022-09-09T07:23:33;17.10;95.50
13074;DHT22;6603;47.066;15.396;2022-09-09T07:26:01;17.20;1.00
13074;DHT22;6603;47.066;15.396;2022-09-09T07:28:26;17.20;1.00
13074;DHT22;6603;47.066;15.396;2022-09-09T07:30:59;17.20;1.00
13074;DHT22;6603;47.066;15.396;2022-09-09T07:33:29;17.20;1.00
13074;DHT22;6603;47.066;15.396;2022-09-09T07:36:10;17.20;1.00
13074;DHT22;6603;47.066;15.396;2022-09-09T07:40:28;17.20;29.20
13074;DHT22;6603;47.066;15.396;2022-09-09T07:42:54;17.20;45.20
13074;DHT22;6603;47.066;15.396;2022-09-09T07:45:20;17.20;1.00
13074;DHT22;6603;47.066;15.396;2022-09-09T07:47:46;17.30;72.30
13074;DHT22;6603;47.066;15.396;2022-09-09T07:50:12;17.20;46.50
13074;DHT22;6603;47.066;15.396;2022-09-09T07:52:37;17.30;61.10
13074;DHT22;6603;47.066;15.396;2022-09-09T07:55:03;17.20;99.90
13074;DHT22;6603;47.066;15.396;2022-09-09T07:57:30;17.20;71.40
13074;DHT22;6603;47.066;15.396;2022-09-09T07:59:56;17.30;38.70
13074;DHT22;6603;47.066;15.396;2022-09-09T08:02:23;17.30;83.20
13074;DHT22;6603;47.066;15.396;2022-09-09T08:04:51;17.30;99.90
13074;DHT22;6603;47.066;15.396;2022-09-09T08:07:17;17.20;99.90
13074;DHT22;6603;47.066;15.396;2022-09-09T08:09:43;17.30;20.90
13074;DHT22;6603;47.066;15.396;2022-09-09T08:12:09;17.40;1.00
13074;DHT22;6603;47.066;15.396;2022-09-09T08:14:36;17.40;1.00
13074;DHT22;6603;47.066;15.396;2022-09-09T08:17:02;17.50;87.20
13074;DHT22;6603;47.066;15.396;2022-09-09T08:19:30;17.60;99.90
13074;DHT22;6603;47.066;15.396;2022-09-09T08:21:59;17.70;95.80
13074;DHT22;6603;47.066;15.396;2022-09-09T08:24:27;17.80;32.10
13074;DHT22;6603;47.066;15.396;2022-09-09T08:26:54;18.00;1.00
13074;DHT22;6603;47.066;15.396;2022-09-09T08:29:21;18.10;1.00
13074;DHT22;6603;47.066;15.396;2022-09-09T08:31:49;18.20;1.00
13074;DHT22;6603;47.066;15.396;2022-09-09T08:34:17;18.20;1.00
13074;DHT22;6603;47.066;15.396;2022-09-09T08:36:47;18.10;1.00
13074;DHT22;6603;47.066;15.396;2022-09-09T08:39:15;18.10;1.00
13074;DHT22;6603;47.066;15.396;2022-09-09T08:42:11;18.10;1.00
13074;DHT22;6603;47.066;15.396;2022-09-09T08:50:22;18.30;1.00
13074;DHT22;6603;47.066;15.396;2022-09-09T08:53:13;18.30;1.00
13074;DHT22;6603;47.066;15.396;2022-09-09T09:10:01;18.80;1.00
13074;DHT22;6603;47.066;15.396;2022-09-09T09:12:32;18.70;1.00
13074;DHT22;6603;47.066;15.396;2022-09-09T09:15:00;18.70;99.90
13074;DHT22;6603;47.066;15.396;2022-09-09T09:17:28;18.90;1.00
13074;DHT22;6603;47.066;15.396;2022-09-09T09:19:58;19.00;1.00
13074;DHT22;6603;47.066;15.396;2022-09-09T09:22:49;19.10;1.00
13074;DHT22;6603;47.066;15.396;2022-09-09T09:25:22;19.30;1.00
13074;DHT22;6603;47.066;15.396;2022-09-09T09:30:39;20.00;1.00
13074;DHT22;6603;47.066;15.396;2022-09-09T09:36:01;20.20;47.80
13074;DHT22;6603;47.066;15.396;2022-09-09T09:38:28;20.20;1.00
13074;DHT22;6603;47.066;15.396;2022-09-09T09:40:56;20.40;13.80
13074;DHT22;6603;47.066;15.396;2022-09-09T09:43:31;20.50;1.00
13074;DHT22;6603;47.066;15.396;2022-09-09T09:45:57;20.60;1.00
13074;DHT22;6603;47.066;15.396;2022-09-09T09:48:25;20.60;99.90
13074;DHT22;6603;47.066;15.396;2022-09-09T09:51:06;20.80;1.00
13074;DHT22;6603;47.066;15.396;2022-09-09T09:53:36;21.10;79.80
13074;DHT22;6603;47.066;15.396;2022-09-09T09:56:11;21.30;1.00
13074;DHT22;6603;47.066;15.396;2022-09-09T10:01:28;21.50;1.00
13074;DHT22;6603;47.066;15.396;2022-09-09T10:06:36;21.60;1.00
13074;DHT22;6603;47.066;15.396;2022-09-09T10:09:17;21.60;1.00
13074;DHT22;6603;47.066;15.396;2022-09-09T10:12:02;22.10;99.90
13074;DHT22;6603;47.066;15.396;2022-09-09T10:17:29;21.60;99.90
13074;DHT22;6603;47.066;15.396;2022-09-09T10:22:28;21.80;99.90
13074;DHT22;6603;47.066;15.396;2022-09-09T10:31:27;21.70;57.40
13074;DHT22;6603;47.066;15.396;2022-09-09T10:34:12;21.80;1.00
13074;DHT22;6603;47.066;15.396;2022-09-09T10:36:52;21.90;1.00
13074;DHT22;6603;47.066;15.396;2022-09-09T10:39:38;22.00;99.90
13074;DHT22;6603;47.066;15.396;2022-09-09T10:42:15;21.90;1.00
13074;DHT22;6603;47.066;15.396;2022-09-09T10:47:39;22.00;99.90
13074;DHT22;6603;47.066;15.396;2022-09-09T10:53:37;21.80;1.00
13074;DHT22;6603;47.066;15.396;2022-09-09T10:56:20;21.70;99.90
13074;DHT22;6603;47.066;15.396;2022-09-09T10:58:52;21.50;1.00
13074;DHT22;6603;47.066;15.396;2022-09-09T11:01:24;21.40;1.00
13074;DHT22;6603;47.066;15.396;2022-09-09T11:04:13;21.30;1.00
13074;DHT22;6603;47.066;15.396;2022-09-09T11:06:46;21.20;1.00
13074;DHT22;6603;47.066;15.396;2022-09-09T11:09:16;21.30;70.60
13074;DHT22;6603;47.066;15.396;2022-09-09T11:11:55;21.30;99.90
13074;DHT22;6603;47.066;15.396;2022-09-09T11:17:15;21.20;1.00
13074;DHT22;6603;47.066;15.396;2022-09-09T11:19:44;21.10;1.00
13074;DHT22;6603;47.066;15.396;2022-09-09T11:22:33;21.00;1.00
13074;DHT22;6603;47.066;15.396;2022-09-09T11:34:02;21.20;1.00
13074;DHT22;6603;47.066;15.396;2022-09-09T11:37:07;21.50;99.90
13074;DHT22;6603;47.066;15.396;2022-09-09T11:44:37;21.60;99.90
13074;DHT22;6603;47.066;15.396;2022-09-09T11:47:22;21.70;1.00
13074;DHT22;6603;47.066;15.396;2022-09-09T11:49:52;21.50;1.00
13074;DHT22;6603;47.066;15.396;2022-09-09T11:54:51;21.80;1.00
13074;DHT22;6603;47.066;15.396;2022-09-09T11:57:32;21.90;1.00
13074;DHT22;6603;47.066;15.396;2022-09-09T11:59:58;21.90;99.90
13074;DHT22;6603;47.066;15.396;2022-09-09T12:02:29;21.80;1.00
13074;DHT22;6603;47.066;15.396;2022-09-09T12:05:09;21.60;1.00
13074;DHT22;6603;47.066;15.396;2022-09-09T12:07:50;22.00;1.00
13074;DHT22;6603;47.066;15.396;2022-09-09T12:10:24;22.10;1.00
13074;DHT22;6603;47.066;15.396;2022-09-09T12:12:51;22.40;99.90
13074;DHT22;6603;47.066;15.396;2022-09-09T12:15:27;22.40;99.90
13074;DHT22;6603;47.066;15.396;2022-09-09T12:17:56;22.20;99.90
13074;DHT22;6603;47.066;15.396;2022-09-09T12:23:29;22.10;1.00
13074;DHT22;6603;47.066;15.396;2022-09-09T12:31:46;21.80;1.00
13074;DHT22;6603;47.066;15.396;2022-09-09T12:34:27;21.70;1.00
13074;DHT22;6603;47.066;15.396;2022-09-09T12:39:45;21.80;1.00
13074;DHT22;6603;47.066;15.396;2022-09-09T12:42:20;21.90;1.00
13074;DHT22;6603;47.066;15.396;2022-09-09T12:44:57;22.00;1.00
13074;DHT22;6603;47.066;15.396;2022-09-09T12:47:31;22.00;1.00
13074;DHT22;6603;47.066;15.396;2022-09-09T12:49:59;22.10;1.00
13074;DHT22;6603;47.066;15.396;2022-09-09T12:52:34;22.00;1.00
13074;DHT22;6603;47.066;15.396;2022-09-09T12:55:04;21.80;99.90
13074;DHT22;6603;47.066;15.396;2022-09-09T12:57:40;21.70;99.90
13074;DHT22;6603;47.066;15.396;2022-09-09T13:00:21;21.60;1.00
13074;DHT22;6603;47.066;15.396;2022-09-09T13:02:56;21.50;1.00
13074;DHT22;6603;47.066;15.396;2022-09-09T13:05:23;21.40;1.00
13074;DHT22;6603;47.066;15.396;2022-09-09T13:07:50;21.30;52.40
13074;DHT22;6603;47.066;15.396;2022-09-09T13:10:28;21.30;1.00
13074;DHT22;6603;47.066;15.396;2022-09-09T13:12:55;21.30;1.00
13074;DHT22;6603;47.066;15.396;2022-09-09T13:15:26;21.20;99.90
13074;DHT22;6603;47.066;15.396;2022-09-09T13:17:56;21.10;52.70
13074;DHT22;6603;47.066;15.396;2022-09-09T13:20:23;21.00;99.90
13074;DHT22;6603;47.066;15.396;2022-09-09T13:22:51;21.00;1.00
13074;DHT22;6603;47.066;15.396;2022-09-09T13:25:27;21.00;1.00
13074;DHT22;6603;47.066;15.396;2022-09-09T13:27:55;21.10;1.00
13074;DHT22;6603;47.066;15.396;2022-09-09T13:33:23;21.30;99.90
13074;DHT22;6603;47.066;15.396;2022-09-09T13:35:55;21.20;51.10
13074;DHT22;6603;47.066;15.396;2022-09-09T13:38:21;21.00;99.90
13074;DHT22;6603;47.066;15.396;2022-09-09T13:41:23;21.00;99.90
13074;DHT22;6603;47.066;15.396;2022-09-09T13:43:51;20.80;1.00
13074;DHT22;6603;47.066;15.396;2022-09-09T13:46:40;20.70;1.00
13074;DHT22;6603;47.066;15.396;2022-09-09T13:54:10;20.20;99.90
13074;DHT22;6603;47.066;15.396;2022-09-09T13:56:38;20.20;96.80
13074;DHT22;6603;47.066;15.396;2022-09-09T13:59:08;20.20;99.90
13074;DHT22;6603;47.066;15.396;2022-09-09T14:01:35;19.90;99.90
13074;DHT22;6603;47.066;15.396;2022-09-09T14:04:01;19.70;1.00
13074;DHT22;6603;47.066;15.396;2022-09-09T14:06:27;19.70;99.90
13074;DHT22;6603;47.066;15.396;2022-09-09T14:08:53;19.60;1.00
13074;DHT22;6603;47.066;15.396;2022-09-09T14:11:21;19.70;1.00
13074;DHT22;6603;47.066;15.396;2022-09-09T14:13:47;19.60;99.90
13074;DHT22;6603;47.066;15.396;2022-09-09T14:16:16;19.50;1.00
13074;DHT22;6603;47.066;15.396;2022-09-09T14:18:44;19.70;99.90
13074;DHT22;6603;47.066;15.396;2022-09-09T14:21:10;19.70;1.00
13074;DHT22;6603;47.066;15.396;2022-09-09T14:23:36;19.60;1.00
13074;DHT22;6603;47.066;15.396;2022-09-09T14:26:04;19.60;99.90
13074;DHT22;6603;47.066;15.396;2022-09-09T14:28:32;19.70;99.90
13074;DHT22;6603;47.066;15.396;2022-09-09T14:31:03;19.60;1.00
13074;DHT22;6603;47.066;15.396;2022-09-09T14:33:31;19.50;1.00
13074;DHT22;6603;47.066;15.396;2022-09-09T14:35:59;19.60;1.00
13074;DHT22;6603;47.066;15.396;2022-09-09T14:38:29;19.40;1.00
13074;DHT22;6603;47.066;15.396;2022-09-09T14:40:55;19.30;1.00
13074;DHT22;6603;47.066;15.396;2022-09-09T14:43:22;19.20;1.00
13074;DHT22;6603;47.066;15.396;2022-09-09T14:45:48;19.20;1.00
13074;DHT22;6603;47.066;15.396;2022-09-09T14:48:14;19.10;1.00
13074;DHT22;6603;47.066;15.396;2022-09-09T14:50:41;19.10;1.00
13074;DHT22;6603;47.066;15.396;2022-09-09T14:53:07;19.10;1.00
13074;DHT22;6603;47.066;15.396;2022-09-09T14:55:35;19.00;1.00
13074;DHT22;6603;47.066;15.396;2022-09-09T14:58:01;19.10;11.70
13074;DHT22;6603;47.066;15.396;2022-09-09T15:00:27;19.10;1.00
13074;DHT22;6603;47.066;15.396;2022-09-09T15:02:54;19.20;1.00
13074;DHT22;6603;47.066;15.396;2022-09-09T15:05:20;19.20;1.00
13074;DHT22;6603;47.066;15.396;2022-09-09T15:07:46;19.00;42.20
13074;DHT22;6603;47.066;15.396;2022-09-09T15:10:13;19.00;28.80
13074;DHT22;6603;47.066;15.396;2022-09-09T15:12:41;18.90;1.00
13074;DHT22;6603;47.066;15.396;2022-09-09T15:15:08;19.10;1.00
13074;DHT22;6603;47.066;15.396;2022-09-09T15:17:34;19.20;1.00
13074;DHT22;6603;47.066;15.396;2022-09-09T15:20:03;19.10;1.00
13074;DHT22;6603;47.066;15.396;2022-09-09T15:22:31;19.20;1.00
13074;DHT22;6603;47.066;15.396;2022-09-09T15:24:57;19.20;1.00
13074;DHT22;6603;47.066;15.396;2022-09-09T15:27:23;19.30;1.60
13074;DHT22;6603;47.066;15.396;2022-09-09T15:29:49;19.30;1.00
13074;DHT22;6603;47.066;15.396;2022-09-09T15:32:17;19.50;1.00
13074;DHT22;6603;47.066;15.396;2022-09-09T15:34:43;19.50;1.00
13074;DHT22;6603;47.066;15.396;2022-09-09T15:37:10;19.50;99.90
13074;DHT22;6603;47.066;15.396;2022-09-09T15:39:39;19.80;99.90
13074;DHT22;6603;47.066;15.396;2022-09-09T15:42:07;20.00;99.90
13074;DHT22;6603;47.066;15.396;2022-09-09T15:44:41;20.10;1.00
13074;DHT22;6603;47.066;15.396;2022-09-09T15:47:10;19.90;99.90
13074;DHT22;6603;47.066;15.396;2022-09-09T15:49:38;19.80;99.90
13074;DHT22;6603;47.066;15.396;2022-09-09T15:52:04;19.90;1.00
13074;DHT22;6603;47.066;15.396;2022-09-09T15:54:35;19.90;1.00
13074;DHT22;6603;47.066;15.396;2022-09-09T15:57:04;20.00;1.00
13074;DHT22;6603;47.066;15.396;2022-09-09T15:59:31;20.00;99.90
13074;DHT22;6603;47.066;15.396;2022-09-09T16:01:58;20.00;7.30
13074;DHT22;6603;47.066;15.396;2022-09-09T16:04:26;19.80;1.00
13074;DHT22;6603;47.066;15.396;2022-09-09T16:06:57;19.80;1.00
13074;DHT22;6603;47.066;15.396;2022-09-09T16:09:25;19.80;1.00
13074;DHT22;6603;47.066;15.396;2022-09-09T16:11:52;19.80;1.00
13074;DHT22;6603;47.066;15.396;2022-09-09T16:14:19;19.90;1.00
13074;DHT22;6603;47.066;15.396;2022-09-09T16:16:45;19.80;1.00
13074;DHT22;6603;47.066;15.396;2022-09-09T16:19:12;19.70;99.90
13074;DHT22;6603;47.066;15.396;2022-09-09T16:21:42;19.70;1.00
13074;DHT22;6603;47.066;15.396;2022-09-09T16:24:10;19.70;95.80
13074;DHT22;6603;47.066;15.396;2022-09-09T16:26:42;19.70;99.90
13074;DHT22;6603;47.066;15.396;2022-09-09T16:29:11;19.60;99.90
13074;DHT22;6603;47.066;15.396;2022-09-09T16:31:37;19.50;1.00
13074;DHT22;6603;47.066;15.396;2022-09-09T16:34:04;19.50;1.00
13074;DHT22;6603;47.066;15.396;2022-09-09T16:36:31;19.20;1.00
13074;DHT22;6603;47.066;15.396;2022-09-09T16:39:03;19.00;1.00
13074;DHT22;6603;47.066;15.396;2022-09-09T16:41:30;18.90;4.10
13074;DHT22;6603;47.066;15.396;2022-09-09T16:44:02;18.60;5.10
13074;DHT22;6603;47.066;15.396;2022-09-09T16:46:29;18.60;32.60
13074;DHT22;6603;47.066;15.396;2022-09-09T16:48:57;18.60;1.00
13074;DHT22;6603;47.066;15.396;2022-09-09T16:51:31;18.60;1.00
13074;DHT22;6603;47.066;15.396;2022-09-09T16:53:59;18.50;1.00
13074;DHT22;6603;47.066;15.396;2022-09-09T16:56:30;18.50;1.00
13074;DHT22;6603;47.066;15.396;2022-09-09T16:59:00;18.50;1.00
13074;DHT22;6603;47.066;15.396;2022-09-09T17:01:29;18.50;1.40
13074;DHT22;6603;47.066;15.396;2022-09-09T17:04:01;18.30;99.90
13074;DHT22;6603;47.066;15.396;2022-09-09T17:06:29;18.20;99.90
13074;DHT22;6603;47.066;15.396;2022-09-09T17:09:01;18.00;99.90
13074;DHT22;6603;47.066;15.396;2022-09-09T17:11:28;17.80;99.90
13074;DHT22;6603;47.066;15.396;2022-09-09T17:13:56;17.90;99.90
13074;DHT22;6603;47.066;15.396;2022-09-09T17:16:25;17.90;99.90
13074;DHT22;6603;47.066;15.396;2022-09-09T17:18:54;17.80;99.90
13074;DHT22;6603;47.066;15.396;2022-09-09T17:21:22;17.80;99.90
13074;DHT22;6603;47.066;15.396;2022-09-09T17:23:49;17.80;98.40
13074;DHT22;6603;47.066;15.396;2022-09-09T17:26:18;17.80;12.60
13074;DHT22;6603;47.066;15.396;2022-09-09T17:28:45;17.70;99.90
13074;DHT22;6603;47.066;15.396;2022-09-09T17:31:14;17.60;99.90
13074;DHT22;6603;47.066;15.396;2022-09-09T17:33:42;17.50;99.90
13074;DHT22;6603;47.066;15.396;2022-09-09T17:36:11;17.30;99.90
13074;DHT22;6603;47.066;15.396;2022-09-09T17:38:37;17.50;99.90
13074;DHT22;6603;47.066;15.396;2022-09-09T17:41:15;17.40;99.90
13074;DHT22;6603;47.066;15.396;2022-09-09T17:43:42;17.40;99.90
13074;DHT22;6603;47.066;15.396;2022-09-09T17:46:09;17.30;99.90
13074;DHT22;6603;47.066;15.396;2022-09-09T17:48:36;17.30;99.90
13074;DHT22;6603;47.066;15.396;2022-09-09T17:51:06;17.30;99.90
13074;DHT22;6603;47.066;15.396;2022-09-09T17:53:42;17.20;99.90
13074;DHT22;6603;47.066;15.396;2022-09-09T17:56:10;17.20;99.90
13074;DHT22;6603;47.066;15.396;2022-09-09T17:58:37;17.30;99.90
13074;DHT22;6603;47.066;15.396;2022-09-09T18:01:11;17.30;99.90
13074;DHT22;6603;47.066;15.396;2022-09-09T18:03:39;17.20;99.90
13074;DHT22;6603;47.066;15.396;2022-09-09T18:06:09;17.20;99.90
13074;DHT22;6603;47.066;15.396;2022-09-09T18:08:39;17.20;99.90
13074;DHT22;6603;47.066;15.396;2022-09-09T18:11:06;17.30;99.90
13074;DHT22;6603;47.066;15.396;2022-09-09T18:13:32;17.30;99.90
13074;DHT22;6603;47.066;15.396;2022-09-09T18:15:59;17.40;99.90
13074;DHT22;6603;47.066;15.396;2022-09-09T18:18:26;17.30;99.90
13074;DHT22;6603;47.066;15.396;2022-09-09T18:20:59;17.40;99.90